createdAt,value
2022-11-12T00:01:40.966Z,10.50
2022-11-12T00:04:26.646Z,10.40
2022-11-12T00:07:12.328Z,10.40
2022-11-12T00:09:57.807Z,10.40
2022-11-12T00:12:43.599Z,10.30
2022-11-12T00:15:29.507Z,10.20
2022-11-12T00:18:15.293Z,10.20
2022-11-12T00:21:00.835Z,10.20
2022-11-12T00:23:46.678Z,10.10
2022-11-12T00:26:32.174Z,10.00
2022-11-12T00:29:17.594Z,9.90
2022-11-12T00:32:03.368Z,9.90
2022-11-12T00:34:48.736Z,9.80
2022-11-12T00:37:34.458Z,9.70
2022-11-12T00:40:19.863Z,9.60
2022-11-12T00:43:06.660Z,9.60
2022-11-12T00:45:52.257Z,9.60
2022-11-12T00:48:37.778Z,9.60
2022-11-12T00:51:23.630Z,9.60
2022-11-12T00:54:09.062Z,9.50
2022-11-12T00:56:54.626Z,9.50
2022-11-12T00:59:40.221Z,9.50
2022-11-12T01:02:25.746Z,9.50
2022-11-12T01:05:13.302Z,9.50
2022-11-12T01:07:59.272Z,9.40
2022-11-12T01:10:44.458Z,9.40
2022-11-12T01:13:32.471Z,9.40
2022-11-12T01:16:20.846Z,9.30
2022-11-12T01:19:09.309Z,9.30
2022-11-12T01:21:54.436Z,9.30
2022-11-12T01:24:40.270Z,9.20
2022-11-12T01:27:25.779Z,9.20
2022-11-12T01:30:11.698Z,9.30
2022-11-12T01:32:57.458Z,9.40
2022-11-12T01:35:42.777Z,9.50
2022-11-12T01:38:28.785Z,9.60
2022-11-12T01:41:17.942Z,9.60
2022-11-12T01:44:26.990Z,9.70
2022-11-12T01:47:33.014Z,9.70
2022-11-12T01:50:32.430Z,9.70
2022-11-12T01:53:41.265Z,9.70
2022-11-12T01:56:29.509Z,9.80
2022-11-12T01:59:19.967Z,9.90
2022-11-12T02:02:05.506Z,9.90
2022-11-12T02:04:51.727Z,10.00
2022-11-12T02:07:40.798Z,10.00
2022-11-12T02:10:27.677Z,10.10
2022-11-12T02:13:31.914Z,10.20
2022-11-12T02:16:17.271Z,10.30
2022-11-12T02:19:04.290Z,10.40
2022-11-12T02:21:49.526Z,10.40
2022-11-12T02:24:36.784Z,10.50
2022-11-12T02:27:25.034Z,10.50
2022-11-12T02:30:11.693Z,10.60
2022-11-12T02:32:57.314Z,10.70
2022-11-12T02:35:42.913Z,10.70
2022-11-12T02:38:28.621Z,10.70
2022-11-12T02:41:14.099Z,10.80
2022-11-12T02:43:59.885Z,10.80
2022-11-12T02:46:45.390Z,10.80
2022-11-12T02:49:30.721Z,10.90
2022-11-12T02:52:16.219Z,10.90
2022-11-12T02:55:24.721Z,10.90
2022-11-12T02:58:10.486Z,11.00
2022-11-12T03:00:56.724Z,11.00
2022-11-12T03:03:42.205Z,11.10
2022-11-12T03:06:27.829Z,11.10
2022-11-12T03:09:13.118Z,11.10
2022-11-12T03:11:58.774Z,11.20
2022-11-12T03:14:46.400Z,11.20
2022-11-12T03:17:33.951Z,11.20
2022-11-12T03:20:20.136Z,11.20
2022-11-12T03:23:09.226Z,11.30
2022-11-12T03:25:54.302Z,11.30
2022-11-12T03:28:39.995Z,11.30
2022-11-12T03:31:25.497Z,11.30
2022-11-12T03:34:11.969Z,11.40
2022-11-12T03:36:57.177Z,11.50
2022-11-12T03:39:42.550Z,11.50
2022-11-12T03:42:27.944Z,11.60
2022-11-12T03:45:15.597Z,11.60
2022-11-12T03:48:00.935Z,11.70
2022-11-12T03:50:46.290Z,11.80
2022-11-12T03:53:33.131Z,11.80
2022-11-12T03:56:18.710Z,11.90
2022-11-12T03:59:04.409Z,11.90
2022-11-12T04:01:49.989Z,11.90
2022-11-12T04:04:53.704Z,12.00
2022-11-12T04:08:08.147Z,12.00
2022-11-12T04:10:53.466Z,12.00
2022-11-12T04:13:42.671Z,12.10
2022-11-12T04:16:46.540Z,12.10
2022-11-12T04:19:50.552Z,12.10
2022-11-12T04:22:36.049Z,12.10
2022-11-12T04:26:01.043Z,12.10
2022-11-12T04:29:05.093Z,12.00
2022-11-12T04:31:50.433Z,11.90
2022-11-12T04:34:36.160Z,11.80
2022-11-12T04:37:23.776Z,11.60
2022-11-12T04:40:35.316Z,11.50
2022-11-12T04:44:00.297Z,11.40
2022-11-12T04:46:45.862Z,11.30
2022-11-12T04:49:31.395Z,11.10
2022-11-12T04:52:17.928Z,11.00
2022-11-12T04:55:05.608Z,10.90
2022-11-12T04:57:52.753Z,10.80
2022-11-12T05:00:41.359Z,10.70
2022-11-12T05:03:27.136Z,10.60
2022-11-12T05:06:31.203Z,10.50
2022-11-12T05:09:17.091Z,10.30
2022-11-12T05:12:03.370Z,10.20
2022-11-12T05:14:48.776Z,10.10
2022-11-12T05:17:34.243Z,10.00
2022-11-12T05:20:19.749Z,10.10
2022-11-12T05:23:07.108Z,10.00
2022-11-12T05:25:53.164Z,10.00
2022-11-12T05:28:38.725Z,10.00
2022-11-12T05:31:24.451Z,9.90
2022-11-12T05:34:10.470Z,9.90
2022-11-12T05:36:56.012Z,9.80
2022-11-12T05:39:41.719Z,9.80
2022-11-12T05:42:27.402Z,9.80
2022-11-12T05:45:14.192Z,9.80
2022-11-12T05:47:59.929Z,9.80
2022-11-12T05:51:11.181Z,9.90
2022-11-12T05:53:59.975Z,10.00
2022-11-12T05:56:45.776Z,10.20
2022-11-12T05:59:31.386Z,10.30
2022-11-12T06:02:16.680Z,10.40
2022-11-12T06:05:02.482Z,10.50
2022-11-12T06:07:47.891Z,10.60
2022-11-12T06:10:33.741Z,10.80
2022-11-12T06:13:21.563Z,10.90
2022-11-12T06:16:07.542Z,11.00
2022-11-12T06:18:52.896Z,11.10
2022-11-12T06:21:38.539Z,11.20
2022-11-12T06:24:24.662Z,11.20
2022-11-12T06:27:10.308Z,11.30
2022-11-12T06:29:55.902Z,11.30
2022-11-12T06:32:41.595Z,11.40
2022-11-12T06:35:28.471Z,11.40
2022-11-12T06:38:14.165Z,11.50
2022-11-12T06:40:59.571Z,11.50
2022-11-12T06:43:46.215Z,11.50
2022-11-12T06:46:31.718Z,11.60
2022-11-12T06:49:17.210Z,11.60
2022-11-12T06:52:03.613Z,11.60
2022-11-12T06:55:09.937Z,11.60
2022-11-12T06:57:55.514Z,11.60
2022-11-12T07:00:40.953Z,11.70
2022-11-12T07:03:27.965Z,11.70
2022-11-12T07:06:15.709Z,11.80
2022-11-12T07:09:01.071Z,11.80
2022-11-12T07:11:46.707Z,11.80
2022-11-12T07:14:33.390Z,11.90
2022-11-12T07:17:19.092Z,11.90
2022-11-12T07:20:05.173Z,11.90
2022-11-12T07:22:50.503Z,11.90
2022-11-12T07:25:37.257Z,11.90
2022-11-12T07:28:22.745Z,12.00
2022-11-12T07:31:11.560Z,12.00
2022-11-12T07:33:59.040Z,12.00
2022-11-12T07:36:44.303Z,12.10
2022-11-12T07:39:29.653Z,12.10
2022-11-12T07:42:15.570Z,12.20
2022-11-12T07:45:01.597Z,12.20
2022-11-12T07:47:47.141Z,12.30
2022-11-12T07:50:32.668Z,12.30
2022-11-12T07:53:20.494Z,12.30
2022-11-12T07:56:06.589Z,12.30
2022-11-12T07:58:52.480Z,12.40
2022-11-12T08:01:40.033Z,12.40
2022-11-12T08:04:25.878Z,12.50
2022-11-12T08:07:11.622Z,12.50
2022-11-12T08:09:57.215Z,12.60
2022-11-12T08:12:42.631Z,12.60
2022-11-12T08:15:29.468Z,12.60
2022-11-12T08:18:14.794Z,12.60
2022-11-12T08:21:05.545Z,12.70
2022-11-12T08:23:56.075Z,12.80
2022-11-12T08:26:41.551Z,12.80
2022-11-12T08:29:26.986Z,12.90
2022-11-12T08:32:12.946Z,12.90
2022-11-12T08:34:58.782Z,13.00
2022-11-12T08:37:44.342Z,13.00
2022-11-12T08:40:32.183Z,13.00
2022-11-12T08:43:38.790Z,13.10
2022-11-12T08:46:24.565Z,13.20
2022-11-12T08:49:09.846Z,13.20
2022-11-12T08:51:55.697Z,13.30
2022-11-12T08:54:41.190Z,13.40
2022-11-12T08:57:26.463Z,13.50
2022-11-12T09:00:13.970Z,13.50
2022-11-12T09:03:01.596Z,13.50
2022-11-12T09:05:47.498Z,13.60
2022-11-12T09:08:34.775Z,13.60
2022-11-12T09:11:20.379Z,13.70
2022-11-12T09:14:08.122Z,13.80
2022-11-12T09:16:53.470Z,13.80
2022-11-12T09:19:42.883Z,13.80
2022-11-12T09:22:28.731Z,13.80
2022-11-12T09:25:14.578Z,13.80
2022-11-12T09:28:08.012Z,13.80
2022-11-12T09:30:54.514Z,13.80
2022-11-12T09:33:59.170Z,14.00
2022-11-12T09:36:44.517Z,14.10
2022-11-12T09:39:29.946Z,14.30
2022-11-12T09:42:18.787Z,14.50
2022-11-12T09:45:30.010Z,14.60
2022-11-12T09:48:21.577Z,14.60
2022-11-12T09:51:17.398Z,14.60
2022-11-12T09:54:24.206Z,14.60
2022-11-12T09:57:12.926Z,14.60
2022-11-12T09:59:58.756Z,14.60
2022-11-12T10:03:15.531Z,14.60
2022-11-12T10:06:10.284Z,14.60
2022-11-12T10:09:20.672Z,14.60
2022-11-12T10:12:33.888Z,14.70
2022-11-12T10:15:53.081Z,14.60
2022-11-12T10:18:44.497Z,14.70
2022-11-12T10:21:54.248Z,14.80
2022-11-12T10:24:45.063Z,14.80
2022-11-12T10:27:39.178Z,14.90
2022-11-12T10:30:25.157Z,15.00
2022-11-12T10:33:16.506Z,15.20
2022-11-12T10:36:31.643Z,15.30
2022-11-12T10:39:35.949Z,15.40
2022-11-12T10:42:22.692Z,15.50
2022-11-12T10:45:23.312Z,15.50
2022-11-12T10:48:32.929Z,15.50
2022-11-12T10:51:33.666Z,15.60
2022-11-12T10:54:38.381Z,15.60
2022-11-12T10:57:26.182Z,15.60
2022-11-12T11:00:16.016Z,15.70
2022-11-12T11:03:23.845Z,15.60
2022-11-12T11:06:15.522Z,15.60
2022-11-12T11:09:13.411Z,15.90
2022-11-12T11:11:59.371Z,16.80
2022-11-12T11:15:10.869Z,17.10
2022-11-12T11:17:56.299Z,16.90
2022-11-12T11:20:51.103Z,16.70
2022-11-12T11:24:30.614Z,16.50
2022-11-12T11:27:43.630Z,16.40
2022-11-12T11:30:28.897Z,16.70
2022-11-12T11:33:36.764Z,16.70
2022-11-12T11:36:32.051Z,16.50
2022-11-12T11:39:43.005Z,16.60
2022-11-12T11:42:50.830Z,16.70
2022-11-12T11:46:05.875Z,16.70
2022-11-12T11:49:03.570Z,16.70
2022-11-12T11:51:59.129Z,16.80
2022-11-12T11:55:06.654Z,16.80
2022-11-12T11:58:22.226Z,17.00
2022-11-12T12:01:29.181Z,17.00
2022-11-12T12:04:17.583Z,16.80
2022-11-12T12:07:37.051Z,16.50
2022-11-12T12:13:54.823Z,16.20
2022-11-12T12:16:48.954Z,16.00
2022-11-12T12:19:47.083Z,15.90
2022-11-12T12:22:43.876Z,15.80
2022-11-12T12:25:37.893Z,15.70
2022-11-12T12:28:47.064Z,15.60
2022-11-12T12:31:48.360Z,15.70
2022-11-12T12:35:11.603Z,15.60
2022-11-12T12:38:15.514Z,15.50
2022-11-12T12:41:28.005Z,15.30
2022-11-12T12:44:16.828Z,15.20
2022-11-12T12:47:03.402Z,15.10
2022-11-12T12:49:50.521Z,15.00
2022-11-12T12:53:01.763Z,15.00
2022-11-12T12:55:50.050Z,14.90
2022-11-12T12:58:47.059Z,14.90
2022-11-12T13:01:36.220Z,14.90
2022-11-12T13:04:53.102Z,14.80
2022-11-12T13:07:47.414Z,14.80
2022-11-12T13:10:38.696Z,14.80
2022-11-12T13:13:32.758Z,14.80
2022-11-12T13:16:53.754Z,14.80
2022-11-12T13:19:52.762Z,14.80
2022-11-12T13:22:38.135Z,14.80
2022-11-12T13:25:29.247Z,14.80
2022-11-12T13:28:14.609Z,14.90
2022-11-12T13:31:02.153Z,14.80
2022-11-12T13:33:49.862Z,14.80
2022-11-12T13:36:35.315Z,14.80
2022-11-12T13:39:22.176Z,14.80
2022-11-12T13:42:35.607Z,14.80
2022-11-12T13:45:25.014Z,14.80
2022-11-12T13:48:20.209Z,14.80
2022-11-12T13:51:32.127Z,14.70
2022-11-12T13:54:34.751Z,14.70
2022-11-12T13:57:19.752Z,14.70
2022-11-12T14:00:21.461Z,14.60
2022-11-12T14:03:08.259Z,14.70
2022-11-12T14:05:54.688Z,14.60
2022-11-12T14:08:58.514Z,14.60
2022-11-12T14:11:55.625Z,14.60
2022-11-12T14:15:03.666Z,14.50
2022-11-12T14:18:37.366Z,14.60
2022-11-12T14:21:22.874Z,14.50
2022-11-12T14:24:13.018Z,14.50
2022-11-12T14:26:58.775Z,14.50
2022-11-12T14:29:44.212Z,14.50
2022-11-12T14:32:36.833Z,14.50
2022-11-12T14:35:26.615Z,14.50
2022-11-12T14:38:21.134Z,14.50
2022-11-12T14:41:21.346Z,14.40
2022-11-12T14:44:12.963Z,14.40
2022-11-12T14:46:59.517Z,14.40
2022-11-12T14:49:47.866Z,14.30
2022-11-12T14:52:40.321Z,14.30
2022-11-12T14:55:33.479Z,14.30
2022-11-12T14:58:21.374Z,14.30
2022-11-12T15:04:43.565Z,14.20
2022-11-12T15:07:56.498Z,14.20
2022-11-12T15:10:44.611Z,14.30
2022-11-12T15:13:39.211Z,14.80
2022-11-12T15:16:29.637Z,15.50
2022-11-12T15:19:20.042Z,15.80
2022-11-12T15:22:05.367Z,16.20
2022-11-12T15:24:51.855Z,16.70
2022-11-12T15:27:41.993Z,17.10
2022-11-12T15:30:29.978Z,17.10
2022-11-12T15:33:21.715Z,16.80
2022-11-12T15:36:20.484Z,16.30
2022-11-12T15:39:13.322Z,15.80
2022-11-12T15:42:06.258Z,15.30
2022-11-12T15:44:59.349Z,14.90
2022-11-12T15:47:45.037Z,14.50
2022-11-12T15:50:31.485Z,14.20
2022-11-12T15:53:18.518Z,14.00
2022-11-12T15:56:13.529Z,13.80
2022-11-12T15:58:58.862Z,13.60
2022-11-12T16:01:44.821Z,13.40
2022-11-12T16:04:31.794Z,13.30
2022-11-12T16:07:17.106Z,13.20
2022-11-12T16:10:03.120Z,13.10
2022-11-12T16:12:57.948Z,13.00
2022-11-12T16:15:43.526Z,12.80
2022-11-12T16:18:28.945Z,12.70
2022-11-12T16:21:20.457Z,12.60
2022-11-12T16:24:09.709Z,12.50
2022-11-12T16:26:56.009Z,12.40
2022-11-12T16:29:41.816Z,12.30
2022-11-12T16:32:27.622Z,12.30
2022-11-12T16:35:16.442Z,12.20
2022-11-12T16:38:02.065Z,12.10
2022-11-12T16:40:47.659Z,12.00
2022-11-12T16:43:33.263Z,12.00
2022-11-12T16:46:28.203Z,11.90
2022-11-12T16:49:14.834Z,11.90
2022-11-12T16:52:01.322Z,11.90
2022-11-12T16:54:48.235Z,11.90
2022-11-12T16:57:33.779Z,11.80
2022-11-12T17:00:19.606Z,11.80
2022-11-12T17:03:04.978Z,11.80
2022-11-12T17:05:53.610Z,11.70
2022-11-12T17:08:39.200Z,11.70
2022-11-12T17:11:24.745Z,11.60
2022-11-12T17:14:11.095Z,11.60
2022-11-12T17:16:56.665Z,11.60
2022-11-12T17:19:42.079Z,11.50
2022-11-12T17:22:28.292Z,11.40
2022-11-12T17:25:15.334Z,11.40
2022-11-12T17:28:00.728Z,11.30
2022-11-12T17:30:46.219Z,11.20
2022-11-12T17:33:32.429Z,11.20
2022-11-12T17:36:20.611Z,11.20
2022-11-12T17:39:05.875Z,11.10
2022-11-12T17:41:51.671Z,11.10
2022-11-12T17:44:42.899Z,11.00
2022-11-12T17:47:28.412Z,11.00
2022-11-12T17:50:13.985Z,10.90
2022-11-12T17:53:01.738Z,10.90
2022-11-12T17:55:47.298Z,10.90
2022-11-12T17:58:33.189Z,10.80
2022-11-12T18:01:26.753Z,10.80
2022-11-12T18:04:12.762Z,10.80
2022-11-12T18:06:58.727Z,10.80
2022-11-12T18:09:43.923Z,10.80
2022-11-12T18:12:29.497Z,10.70
2022-11-12T18:15:34.090Z,10.70
2022-11-12T18:18:19.874Z,10.70
2022-11-12T18:21:05.346Z,10.70
2022-11-12T18:23:51.446Z,10.60
2022-11-12T18:26:36.877Z,10.60
2022-11-12T18:29:22.645Z,10.50
2022-11-12T18:32:08.566Z,10.50
2022-11-12T18:34:56.334Z,10.50
2022-11-12T18:37:41.961Z,10.50
2022-11-12T18:40:27.482Z,10.40
2022-11-12T18:43:15.212Z,10.40
2022-11-12T18:46:00.842Z,10.40
2022-11-12T18:48:47.354Z,10.40
2022-11-12T18:51:32.891Z,10.50
2022-11-12T18:54:18.451Z,10.50
2022-11-12T18:57:03.923Z,10.50
2022-11-12T18:59:52.087Z,10.50
2022-11-12T19:02:37.595Z,10.60
2022-11-12T19:05:23.148Z,10.60
2022-11-12T19:08:08.978Z,10.60
2022-11-12T19:11:02.308Z,10.60
2022-11-12T19:13:51.906Z,10.60
2022-11-12T19:16:42.492Z,10.60
2022-11-12T19:19:28.127Z,10.60
2022-11-12T19:22:13.682Z,10.60
2022-11-12T19:25:02.443Z,10.60
2022-11-12T19:27:47.713Z,10.50
2022-11-12T19:30:33.473Z,10.60
2022-11-12T19:33:19.063Z,10.50
2022-11-12T19:36:06.796Z,10.50
2022-11-12T19:38:59.771Z,10.40
2022-11-12T19:41:45.249Z,10.40
2022-11-12T19:44:31.715Z,10.30
2022-11-12T19:47:17.288Z,10.30
2022-11-12T19:50:03.065Z,10.30
2022-11-12T19:52:48.318Z,10.40
2022-11-12T19:55:39.616Z,10.40
2022-11-12T19:58:25.709Z,10.50
2022-11-12T20:01:14.236Z,10.40
2022-11-12T20:03:59.899Z,10.30
2022-11-12T20:06:45.605Z,10.30
2022-11-12T20:09:32.184Z,10.30
2022-11-12T20:12:17.539Z,10.20
2022-11-12T20:15:04.449Z,10.20
2022-11-12T20:17:49.702Z,10.30
2022-11-12T20:20:35.177Z,10.30
2022-11-12T20:23:23.611Z,10.40
2022-11-12T20:26:11.162Z,10.40
2022-11-12T20:28:56.907Z,10.40
2022-11-12T20:31:42.513Z,10.40
2022-11-12T20:34:28.031Z,10.50
2022-11-12T20:37:13.690Z,10.50
2022-11-12T20:39:59.435Z,10.50
2022-11-12T20:42:45.947Z,10.60
2022-11-12T20:45:31.143Z,10.60
2022-11-12T20:48:16.607Z,10.60
2022-11-12T20:51:25.287Z,10.60
2022-11-12T20:54:11.150Z,10.60
2022-11-12T20:56:56.677Z,10.60
2022-11-12T20:59:43.178Z,10.70
2022-11-12T21:02:28.758Z,10.70
2022-11-12T21:05:14.101Z,10.70
2022-11-12T21:07:59.696Z,10.70
2022-11-12T21:10:49.184Z,10.70
2022-11-12T21:13:36.725Z,10.70
2022-11-12T21:16:22.387Z,10.70
2022-11-12T21:19:07.811Z,10.70
2022-11-12T21:21:53.457Z,10.70
2022-11-12T21:24:39.108Z,10.70
2022-11-12T21:27:24.744Z,10.70
2022-11-12T21:30:10.801Z,10.70
2022-11-12T21:32:56.493Z,10.70
2022-11-12T21:35:42.277Z,10.60
2022-11-12T21:38:28.761Z,10.60
2022-11-12T21:41:17.727Z,10.60
2022-11-12T21:44:02.959Z,10.60
2022-11-12T21:46:48.589Z,10.60
2022-11-12T21:49:34.264Z,10.60
2022-11-12T21:52:20.644Z,10.50
2022-11-12T21:55:06.919Z,10.50
2022-11-12T21:57:52.246Z,10.50
2022-11-12T22:00:42.260Z,10.40
2022-11-12T22:03:30.938Z,10.50
2022-11-12T22:06:16.764Z,10.40
2022-11-12T22:09:02.296Z,10.50
2022-11-12T22:11:47.951Z,10.40
2022-11-12T22:14:33.417Z,10.40
2022-11-12T22:17:18.816Z,10.30
2022-11-12T22:20:05.050Z,10.30
2022-11-12T22:22:52.113Z,10.20
2022-11-12T22:25:37.670Z,10.20
2022-11-12T22:28:23.789Z,10.40
2022-11-12T22:31:15.586Z,10.50
2022-11-12T22:34:02.755Z,10.60
2022-11-12T22:36:48.482Z,10.70
2022-11-12T22:39:34.362Z,10.80
2022-11-12T22:42:19.935Z,10.90
2022-11-12T22:45:06.115Z,11.00
2022-11-12T22:47:51.479Z,11.10
2022-11-12T22:50:37.292Z,11.20
2022-11-12T22:53:23.058Z,11.20
2022-11-12T22:56:15.006Z,11.30
2022-11-12T22:59:03.410Z,11.40
2022-11-12T23:01:49.001Z,11.40
2022-11-12T23:04:35.822Z,11.50
2022-11-12T23:07:21.329Z,11.50
2022-11-12T23:10:07.366Z,11.60
2022-11-12T23:12:52.867Z,11.60
2022-11-12T23:15:38.357Z,11.70
2022-11-12T23:18:24.133Z,11.70
2022-11-12T23:21:15.450Z,11.70
2022-11-12T23:24:02.920Z,11.80
2022-11-12T23:26:48.466Z,11.90
2022-11-12T23:29:33.825Z,11.90
2022-11-12T23:32:19.228Z,11.90
2022-11-12T23:35:05.762Z,12.00
2022-11-12T23:37:52.851Z,12.00
2022-11-12T23:40:38.208Z,12.00
2022-11-12T23:43:25.859Z,12.00
2022-11-12T23:46:12.362Z,12.10
2022-11-12T23:48:58.392Z,12.10
2022-11-12T23:51:43.810Z,12.10
2022-11-12T23:54:30.463Z,12.10
2022-11-12T23:57:15.864Z,12.10
